Letcher, Kentucky
Current Conditions -  °F | °C
As of 12:35 PM on Monday 22 Dec 2014 (Local Time) from KLNP Reporting Station
Overcast Overcast  
Wind Chill: 52°   Ceiling: 2300
Heat Index: 52°   Visibility: 10mi
Dew Point: 39°   Wind: 8mph
Humidity: 62%   Direction: 160°SSE
Pressure: 29.95"   Gusts: NA
Location:  37.15°N, 82.96°W
Report Text: KLNP 221735Z AUTO 16007KT 140V220 10SM OVC023 11/04 A2995 RMK AO2
Loading
Personal Weather Stations






























Interactive Weather Map New forecast layout! Learn more

10-Day Weather Forecast

Advertisements
Track Severe Weather on mobile